Al-wafra, Kuwait

2:10 PM +03 on March 26, 2017 (GMT +0300)
Khairan | | Change Station

Elev -10 ft 28.67 °N, 48.38 °E | Updated 2 seconds ago

Clear
Clear
69.8 °F
Feels Like 69.8 °F
N
14.1
Wind Variable Wind from SSE
Gusts 17.0 mph

Today
High -- | Low -- °F
--% Chance of Precip.
Yesterday
High -- | Low -- °F
Precip. -- in
Pressure 29.98 in
Visibility 6.2 miles
Clouds Mostly Cloudy 3000 ft
Dew Point 61 °F
Humidity 74%
Rainfall 0.00 in
Snow Depth Not available.
5:44 AM 6:02 PM
Waning Crescent, 4% visible
METAR OKBK 261100Z 27008KT 9999 BKN030 25/09 Q1015 NOSIG
Pressure 29.98 in
Visibility 6.2 miles
Clouds Mostly Cloudy 3000 ft
Dew Point 61 °F
Humidity 74%
Rainfall 0.00 in
Snow Depth Not available.
5:44 AM 6:02 PM
Waning Crescent, 4% visible
METAR OKBK 261100Z 27008KT 9999 BKN030 25/09 Q1015 NOSIG

Get Severe Weather Alerts

Thanks for signing up!

Be on the lookout for a verification email in your inbox.

You'll start receiving the daily forecast at 8 AM.

×

10-Day Weather Forecast

No radar image for this location.
×

Almanac

Astronomy

Mar. 26, 2017 Rise Set
Actual Time
Civil Twilight
Nautical Twilight
Astronomical Twilight
Moon
Length of Visible Light
Length of Day
Tomorrow will be .
, % of the Moon is Illuminated

Today's Extremes

Country Highs Country Lows

Community

WunderPhotos

Upload Photos

1,962,540 photos uploaded!

WunderBlog® & News

Nearby

Air Quality

  Air Quality AQ Index Pollutant
Not available.

Snow Depth

Station Depth Elevation

Earthquake Activity

City Distance Mag. Time & Date
Minimum magnitude displayed is 2.5.

Earthquake Activity

City Distance Mag. Time & Date
Minimum magnitude displayed is 2.5.

Coastal Water Temperatures

Place Temperature

Stations

Nearby Weather Stations

Station Location Temp. Windchill Dew Point Humidity Wind Precip. Elev Updated Type